Time;durP1;ratioP1;P1;durP2;ratioP2;P2;SDS_P1;SDS_P2;PMS_P1;PMS_P2;Temp;Humidity;BMP_temperature;BMP_pressure;BME280_temperature;BME280_humidity;BME280_pressure;Samples;Min_cycle;Max_cycle;Signal;HPM_P1;HPM_P2
2024/01/15 00:02:06;;;;;;;0.60;0.60;;;3.30;99.90;;;;;;5118820;27;20429;-86
2024/01/15 00:04:36;;;;;;;0.60;0.60;;;2.50;99.90;;;;;;5113645;27;20081;-82
2024/01/15 00:07:02;;;;;;;0.60;0.60;;;2.80;99.90;;;;;;5103628;28;20130;-83
2024/01/15 00:09:27;;;;;;;0.60;0.60;;;2.00;99.90;;;;;;5095525;28;20803;-84
2024/01/15 00:11:53;;;;;;;0.60;0.60;;;1.60;99.90;;;;;;5094989;28;20032;-82
2024/01/15 00:14:20;;;;;;;0.60;0.60;;;1.10;99.90;;;;;;5095275;28;20085;-83
2024/01/15 00:16:46;;;;;;;0.63;0.63;;;1.40;99.90;;;;;;5096457;28;20388;-82
2024/01/15 00:19:12;;;;;;;;;;;1.30;99.90;;;;;;5112785;28;20043;-81
2024/01/15 00:21:40;;;;;;;0.65;0.65;;;1.20;99.90;;;;;;5095185;28;19919;-83
2024/01/15 00:24:06;;;;;;;0.70;0.70;;;2.20;99.90;;;;;;5098848;27;20108;-84
2024/01/15 00:26:31;;;;;;;0.70;0.70;;;1.40;99.90;;;;;;5100828;28;20039;-86
2024/01/15 00:28:57;;;;;;;0.65;0.65;;;2.30;99.90;;;;;;5077248;27;20036;-86
2024/01/15 00:31:23;;;;;;;0.70;0.70;;;1.40;99.90;;;;;;5128129;27;20039;-85
2024/01/15 00:33:49;;;;;;;0.60;0.60;;;1.80;99.90;;;;;;5095932;28;20079;-83
2024/01/15 00:36:16;;;;;;;;;;;1.30;99.90;;;;;;5113545;28;20452;-82
2024/01/15 00:38:42;;;;;;;0.60;0.60;;;1.50;99.90;;;;;;5095578;28;19969;-84
2024/01/15 00:41:08;;;;;;;0.70;0.70;;;1.50;99.90;;;;;;5116937;28;20040;-84
2024/01/15 00:43:35;;;;;;;1.70;1.60;;;1.40;99.90;;;;;;5097422;28;20051;-85
2024/01/15 00:46:05;;;;;;;0.70;0.70;;;1.50;99.90;;;;;;5096679;28;20400;-85
2024/01/15 00:48:31;;;;;;;0.70;0.70;;;1.50;99.90;;;;;;5094940;28;20127;-82
2024/01/15 00:50:57;;;;;;;0.50;0.50;;;1.60;99.90;;;;;;5112286;28;20452;-82
2024/01/15 00:53:23;;;;;;;0.70;0.70;;;1.70;99.90;;;;;;5095045;27;20068;-82
2024/01/15 00:55:49;;;;;;;0.60;0.60;;;1.90;99.90;;;;;;5127469;27;20027;-83
2024/01/15 00:58:15;;;;;;;0.52;0.52;;;2.70;99.90;;;;;;5112316;28;20399;-83
2024/01/15 01:00:42;;;;;;;0.70;0.70;;;1.90;99.90;;;;;;5097763;27;20113;-82
2024/01/15 01:03:08;;;;;;;0.60;0.60;;;1.70;99.90;;;;;;5128820;27;20040;-84
2024/01/15 01:05:38;;;;;;;0.50;0.50;;;1.80;99.90;;;;;;5118244;28;20051;-82
2024/01/15 01:08:04;;;;;;;0.60;0.60;;;1.80;99.90;;;;;;5119103;28;20036;-81
2024/01/15 01:10:30;;;;;;;;;;;1.70;99.90;;;;;;5115162;27;20036;-83
2024/01/15 01:12:56;;;;;;;0.60;0.60;;;2.40;99.90;;;;;;5120233;27;20055;-82
2024/01/15 01:15:21;;;;;;;0.70;0.70;;;1.70;99.90;;;;;;5114916;27;20504;-88
2024/01/15 01:17:47;;;;;;;0.70;0.70;;;1.20;99.90;;;;;;5113278;27;20384;-84
2024/01/15 01:20:15;;;;;;;0.60;0.60;;;1.60;99.90;;;;;;5094946;28;20051;-83
2024/01/15 01:22:41;;;;;;;0.77;0.77;;;1.80;99.90;;;;;;5094607;28;20054;-82
2024/01/15 01:25:07;;;;;;;;;;;2.10;99.90;;;;;;5095155;28;20071;-80
2024/01/15 01:27:33;;;;;;;0.70;0.70;;;1.70;99.90;;;;;;5110820;28;20069;-82
2024/01/15 01:29:58;;;;;;;0.70;0.70;;;1.60;99.90;;;;;;5094401;28;20043;-84
2024/01/15 01:32:24;;;;;;;0.68;0.68;;;1.70;99.90;;;;;;5087685;28;20044;-84
2024/01/15 01:34:50;;;;;;;0.60;0.60;;;1.70;99.90;;;;;;5085310;28;20047;-82
2024/01/15 01:37:15;;;;;;;0.70;0.70;;;1.70;99.90;;;;;;5104595;28;20048;-82
2024/01/15 01:39:42;;;;;;;0.70;0.70;;;1.80;99.90;;;;;;5086188;28;20043;-85
2024/01/15 01:42:08;;;;;;;0.70;0.70;;;2.50;99.90;;;;;;5073605;28;20043;-85
2024/01/15 01:44:33;;;;;;;0.80;0.80;;;2.90;99.90;;;;;;5101404;28;20146;-86
2024/01/15 01:47:00;;;;;;;0.70;0.70;;;2.20;99.90;;;;;;5068174;28;20479;-83
2024/01/15 01:49:26;;;;;;;;;;;1.90;99.90;;;;;;5085191;27;20388;-83
2024/01/15 01:51:52;;;;;;;0.60;0.60;;;2.20;99.90;;;;;;5090918;28;19969;-82
2024/01/15 01:54:20;;;;;;;0.77;0.77;;;2.00;99.90;;;;;;5087311;28;20039;-84
2024/01/15 01:56:48;;;;;;;0.60;0.60;;;2.00;99.90;;;;;;5086250;28;20122;-82
2024/01/15 01:59:14;;;;;;;0.60;0.60;;;2.00;99.90;;;;;;5063792;28;20131;-83
2024/01/15 02:01:41;;;;;;;0.60;0.60;;;2.00;99.90;;;;;;5104917;28;20123;-83
2024/01/15 02:04:08;;;;;;;0.70;0.70;;;2.20;99.90;;;;;;5087660;28;20060;-86
2024/01/15 02:06:34;;;;;;;0.60;0.60;;;2.20;99.90;;;;;;5101600;28;20047;-83
2024/01/15 02:09:00;;;;;;;0.65;0.65;;;2.30;99.90;;;;;;5058180;28;20028;-85
2024/01/15 02:11:26;;;;;;;0.70;0.70;;;1.80;99.90;;;;;;5084709;28;20067;-86
2024/01/15 02:13:52;;;;;;;0.52;0.52;;;2.40;99.90;;;;;;5082205;28;20408;-85
2024/01/15 02:16:18;;;;;;;0.70;0.70;;;2.70;99.90;;;;;;5085703;28;20381;-84
2024/01/15 02:18:46;;;;;;;0.60;0.60;;;2.50;99.90;;;;;;5085135;28;20119;-83
2024/01/15 02:21:12;;;;;;;0.70;0.70;;;2.20;99.90;;;;;;5100103;28;20761;-82
2024/01/15 02:23:38;;;;;;;0.63;0.63;;;2.40;99.90;;;;;;5100177;28;20054;-83
2024/01/15 02:26:05;;;;;;;0.60;0.60;;;2.50;99.90;;;;;;5078773;28;20054;-85
2024/01/15 02:28:32;;;;;;;0.60;0.60;;;2.60;99.90;;;;;;5081575;28;20103;-80
2024/01/15 02:30:58;;;;;;;0.50;0.50;;;2.30;99.90;;;;;;5103522;28;20032;-83
2024/01/15 02:33:24;;;;;;;0.60;0.60;;;2.60;99.90;;;;;;5101017;28;20100;-80
2024/01/15 02:35:50;;;;;;;0.52;0.52;;;2.60;99.90;;;;;;5085215;28;20127;-84
2024/01/15 02:38:16;;;;;;;0.60;0.60;;;2.60;99.90;;;;;;5082942;28;20036;-85
2024/01/15 02:40:42;;;;;;;0.60;0.60;;;3.00;99.90;;;;;;5087246;28;20112;-86
2024/01/15 02:43:08;;;;;;;0.60;0.60;;;2.60;99.90;;;;;;5099789;28;20445;-86
2024/01/15 02:45:34;;;;;;;0.60;0.60;;;3.20;99.90;;;;;;5107660;28;20043;-80
2024/01/15 02:48:00;;;;;;;0.70;0.70;;;2.50;99.90;;;;;;5106439;28;20070;-83
2024/01/15 02:50:26;;;;;;;0.55;0.55;;;2.50;99.90;;;;;;5072365;28;20089;-81
2024/01/15 02:52:52;;;;;;;0.55;0.55;;;2.30;99.90;;;;;;5105166;28;20062;-82
2024/01/15 02:55:18;;;;;;;0.63;0.63;;;2.70;99.90;;;;;;5092405;28;20063;-82
2024/01/15 02:57:43;;;;;;;0.57;0.57;;;2.50;99.90;;;;;;5083424;28;20047;-82
2024/01/15 03:00:09;;;;;;;0.70;0.70;;;3.00;99.90;;;;;;5086304;28;20492;-85
2024/01/15 03:02:39;;;;;;;0.70;0.70;;;2.40;99.90;;;;;;5101038;28;20060;-81
2024/01/15 03:05:07;;;;;;;0.57;0.57;;;2.60;99.90;;;;;;5087081;28;20384;-82
2024/01/15 03:07:33;;;;;;;0.52;0.52;;;2.00;99.90;;;;;;5081504;28;20381;-79
2024/01/15 03:09:59;;;;;;;0.50;0.50;;;2.80;99.90;;;;;;5070155;28;20051;-84
2024/01/15 03:12:25;;;;;;;;;;;2.20;99.90;;;;;;5073581;28;20368;-82
2024/01/15 03:14:50;;;;;;;0.52;0.52;;;2.20;99.90;;;;;;5082420;28;19916;-81
2024/01/15 03:17:16;;;;;;;0.60;0.60;;;1.90;99.90;;;;;;5087514;28;20043;-79
2024/01/15 03:19:42;;;;;;;0.70;0.70;;;2.20;99.90;;;;;;5080269;28;20047;-83
2024/01/15 03:22:08;;;;;;;;;;;2.20;99.90;;;;;;5078251;28;20075;-78
2024/01/15 03:24:35;;;;;;;0.60;0.60;;;3.30;99.90;;;;;;5087006;28;20010;-84
2024/01/15 03:27:00;;;;;;;;;;;2.30;99.90;;;;;;5106343;27;20118;-80
2024/01/15 03:29:26;;;;;;;0.50;0.50;;;2.10;99.90;;;;;;5086708;28;19923;-85
2024/01/15 03:31:52;;;;;;;;;;;2.30;99.90;;;;;;5102919;27;20109;-80
2024/01/15 03:34:18;;;;;;;0.60;0.60;;;2.20;99.90;;;;;;5110269;28;20342;-82
2024/01/15 03:36:43;;;;;;;0.68;0.68;;;3.00;99.90;;;;;;5088289;28;20039;-81
2024/01/15 03:39:09;;;;;;;0.75;0.75;;;2.10;99.90;;;;;;5077150;28;20043;-80
2024/01/15 03:41:35;;;;;;;0.68;0.68;;;1.80;99.90;;;;;;5094812;27;20044;-80
2024/01/15 03:44:02;;;;;;;0.73;0.73;;;2.00;99.90;;;;;;5077388;28;20046;-82
2024/01/15 03:46:28;;;;;;;53.28;2.90;;;2.10;99.90;;;;;;5109738;27;20044;-81
2024/01/15 03:48:54;;;;;;;0.75;0.75;;;2.00;99.90;;;;;;5084788;27;20054;-80
2024/01/15 03:51:20;;;;;;;0.65;0.65;;;2.20;99.90;;;;;;5086137;27;20040;-81
2024/01/15 03:53:46;;;;;;;0.70;0.70;;;1.80;99.90;;;;;;5102645;28;20476;-82
2024/01/15 03:56:12;;;;;;;;;;;3.50;99.90;;;;;;5106255;27;20039;-80
2024/01/15 03:58:37;;;;;;;;;;;2.50;99.90;;;;;;5101676;28;19926;-81
2024/01/15 04:01:03;;;;;;;;;;;2.10;99.90;;;;;;5101894;28;19919;-82
2024/01/15 04:03:28;;;;;;;;;;;2.30;99.90;;;;;;5091396;28;20520;-81
2024/01/15 04:05:54;;;;;;;;;;;2.40;99.90;;;;;;5102498;28;19934;-81
2024/01/15 04:08:19;;;;;;;;;;;2.20;99.90;;;;;;5087753;28;19920;-82
2024/01/15 04:10:45;;;;;;;;;;;2.50;99.90;;;;;;5106021;28;19963;-82
2024/01/15 04:13:11;;;;;;;;;;;2.60;99.90;;;;;;5110811;28;19930;-84
2024/01/15 04:15:42;;;;;;;;;;;2.60;99.90;;;;;;5103353;28;19927;-80
2024/01/15 04:18:08;;;;;;;;;;;2.60;99.90;;;;;;5088348;28;19916;-81
2024/01/15 04:20:33;;;;;;;;;;;2.60;99.90;;;;;;5104318;27;20404;-85
2024/01/15 04:22:59;;;;;;;;;;;2.70;99.90;;;;;;5101243;28;19924;-82
2024/01/15 04:25:25;;;;;;;;;;;2.90;99.90;;;;;;5104421;28;19923;-81
2024/01/15 04:27:50;;;;;;;;;;;2.70;99.90;;;;;;5105561;28;19942;-85
2024/01/15 04:30:16;;;;;;;;;;;2.70;99.90;;;;;;5105711;28;21207;-84
2024/01/15 04:32:41;;;;;;;;;;;2.40;99.90;;;;;;5087631;28;19919;-79
2024/01/15 04:35:07;;;;;;;;;;;2.70;99.90;;;;;;5090928;28;19916;-84
2024/01/15 04:37:33;;;;;;;;;;;2.30;99.90;;;;;;5084717;28;19916;-81
2024/01/15 04:39:58;;;;;;;;;;;3.10;99.90;;;;;;5090819;27;19923;-81
2024/01/15 04:42:24;;;;;;;;;;;2.10;99.90;;;;;;5104823;27;21572;-83
2024/01/15 04:44:49;;;;;;;;;;;2.30;99.90;;;;;;5109072;28;19991;-83
2024/01/15 04:47:15;;;;;;;;;;;2.00;99.90;;;;;;5086583;28;19923;-79
2024/01/15 04:49:41;;;;;;;;;;;2.00;99.90;;;;;;5106415;28;19923;-81
2024/01/15 04:52:06;;;;;;;;;;;2.00;99.90;;;;;;5102235;28;19916;-87
2024/01/15 04:54:32;;;;;;;;;;;2.00;99.90;;;;;;5105401;28;20356;-79
2024/01/15 04:56:57;;;;;;;;;;;1.90;99.90;;;;;;5082306;28;19923;-82
2024/01/15 04:59:23;;;;;;;;;;;2.00;99.90;;;;;;5104317;28;19970;-85
2024/01/15 05:01:49;;;;;;;;;;;2.30;99.90;;;;;;5101698;28;20425;-82
2024/01/15 05:04:15;;;;;;;;;;;2.00;99.90;;;;;;5090813;27;19937;-83
2024/01/15 05:06:40;;;;;;;;;;;1.70;99.90;;;;;;5108699;27;19930;-80
2024/01/15 05:09:06;;;;;;;;;;;1.70;99.90;;;;;;5110215;28;20362;-80
2024/01/15 05:11:32;;;;;;;;;;;1.60;99.90;;;;;;5068763;28;19923;-81
2024/01/15 05:13:58;;;;;;;;;;;1.70;99.90;;;;;;5103744;28;19919;-79
2024/01/15 05:16:23;;;;;;;;;;;1.70;99.90;;;;;;5101235;28;20077;-81
2024/01/15 05:18:49;;;;;;;;;;;1.60;99.90;;;;;;5084596;28;19923;-80
2024/01/15 05:21:14;;;;;;;;;;;1.60;99.90;;;;;;5105064;28;19931;-79
2024/01/15 05:23:40;;;;;;;;;;;2.30;99.90;;;;;;5105653;27;19985;-84
2024/01/15 05:26:06;;;;;;;;;;;2.20;99.90;;;;;;5103126;28;19939;-83
2024/01/15 05:28:31;;;;;;;;;;;1.90;99.90;;;;;;5084117;28;19935;-82
2024/01/15 05:30:57;;;;;;;;;;;1.40;99.90;;;;;;5100908;28;19922;-78
2024/01/15 05:33:23;;;;;;;;;;;1.80;99.90;;;;;;5086073;28;19925;-79
2024/01/15 05:35:50;;;;;;;;;;;1.70;99.90;;;;;;5077010;28;19970;-81
2024/01/15 05:38:16;;;;;;;;;;;2.40;99.90;;;;;;5100706;28;19923;-80
2024/01/15 05:40:41;;;;;;;;;;;2.80;99.90;;;;;;5098840;28;19919;-83
2024/01/15 05:43:07;;;;;;;;;;;1.60;99.90;;;;;;5086828;28;19919;-77
2024/01/15 05:45:34;;;;;;;;;;;1.40;99.90;;;;;;5100917;28;19922;-80
2024/01/15 05:47:59;;;;;;;;;;;1.50;99.90;;;;;;5088459;28;19920;-79
2024/01/15 05:50:25;;;;;;;;;;;1.30;99.90;;;;;;5105553;28;20481;-85
2024/01/15 05:52:50;;;;;;;;;;;1.10;99.90;;;;;;5105838;28;20598;-83
2024/01/15 05:55:18;;;;;;;;;;;1.20;99.90;;;;;;5086063;28;19927;-86
2024/01/15 05:57:43;;;;;;;;;;;1.20;99.90;;;;;;5101357;28;19916;-81
2024/01/15 06:00:10;;;;;;;;;;;1.20;99.90;;;;;;5102463;28;19926;-79
2024/01/15 06:02:37;;;;;;;;;;;1.10;99.90;;;;;;5080842;28;19920;-84
2024/01/15 06:05:02;;;;;;;;;;;1.20;99.90;;;;;;5088196;28;19920;-85
2024/01/15 06:07:28;;;;;;;;;;;1.20;99.90;;;;;;5086069;28;19920;-85
2024/01/15 06:09:54;;;;;;;;;;;1.30;99.90;;;;;;5101606;28;20426;-81
2024/01/15 06:12:19;;;;;;;;;;;1.20;99.90;;;;;;5101952;28;19920;-79
2024/01/15 06:14:45;;;;;;;;;;;1.10;99.90;;;;;;5100712;28;19919;-80
2024/01/15 06:17:10;;;;;;;;;;;1.10;99.90;;;;;;5103945;28;20306;-80
2024/01/15 06:19:36;;;;;;;;;;;0.40;99.90;;;;;;5086992;28;19928;-83
2024/01/15 06:22:02;;;;;;;;;;;1.20;99.90;;;;;;5106373;28;20403;-81
2024/01/15 06:24:27;;;;;;;;;;;1.20;99.90;;;;;;5079051;28;19985;-81
2024/01/15 06:26:53;;;;;;;;;;;1.00;99.90;;;;;;5100465;28;19934;-82
2024/01/15 06:29:19;;;;;;;;;;;1.50;99.90;;;;;;5083056;28;20340;-81
2024/01/15 06:31:44;;;;;;;;;;;1.00;99.90;;;;;;5104216;28;20372;-83
2024/01/15 06:34:10;;;;;;;;;;;1.10;99.90;;;;;;5069066;28;19915;-82
2024/01/15 06:36:35;;;;;;;;;;;1.20;99.90;;;;;;5082797;28;19920;-84
2024/01/15 06:39:01;;;;;;;;;;;1.40;99.90;;;;;;5076432;28;19920;-81
2024/01/15 06:41:27;;;;;;;;;;;1.40;99.90;;;;;;5102025;28;20358;-78
2024/01/15 06:43:52;;;;;;;;;;;1.30;99.90;;;;;;5081621;28;19930;-79
2024/01/15 06:46:21;;;;;;;;;;;1.60;99.90;;;;;;5084767;28;19915;-77
2024/01/15 06:48:47;;;;;;;;;;;1.20;99.90;;;;;;5100788;28;19928;-84
2024/01/15 06:51:14;;;;;;;;;;;1.20;99.90;;;;;;5101119;28;19923;-81
2024/01/15 06:53:41;;;;;;;;;;;1.20;99.90;;;;;;5091600;28;19942;-81
2024/01/15 06:56:06;;;;;;;;;;;1.10;99.90;;;;;;5107235;28;19916;-81
2024/01/15 06:58:32;;;;;;;;;;;1.20;99.90;;;;;;5089433;28;19924;-86
2024/01/15 07:00:57;;;;;;;;;;;1.40;99.90;;;;;;5107552;28;20337;-80
2024/01/15 07:03:23;;;;;;;;;;;1.30;99.90;;;;;;5108836;28;19915;-81
2024/01/15 07:05:49;;;;;;;;;;;1.00;99.90;;;;;;5104584;28;19919;-84
2024/01/15 07:08:14;;;;;;;;;;;1.00;99.90;;;;;;5086906;27;19947;-82
2024/01/15 07:10:46;;;;;;;;;;;1.40;99.90;;;;;;5103528;28;21512;-78
2024/01/15 07:13:11;;;;;;;;;;;1.20;99.90;;;;;;5101598;28;19978;-82
2024/01/15 07:15:37;;;;;;;;;;;1.20;99.90;;;;;;5088709;27;20413;-84
2024/01/15 07:18:03;;;;;;;;;;;1.20;99.90;;;;;;5090809;28;19954;-83
2024/01/15 07:20:28;;;;;;;;;;;1.40;99.90;;;;;;5090560;28;19919;-85
2024/01/15 07:22:54;;;;;;;;;;;1.30;99.90;;;;;;5090610;28;19923;-83
2024/01/15 07:25:19;;;;;;;;;;;1.50;99.90;;;;;;5105989;28;19915;-86
2024/01/15 07:27:46;;;;;;;;;;;1.40;99.90;;;;;;5108258;28;20030;-85
2024/01/15 07:30:12;;;;;;;;;;;1.10;99.90;;;;;;5102106;28;19931;-85
2024/01/15 07:32:37;;;;;;;;;;;1.00;99.90;;;;;;5088557;27;20245;-82
2024/01/15 07:35:03;;;;;;;;;;;0.80;99.90;;;;;;5103776;28;19920;-83
2024/01/15 07:37:29;;;;;;;;;;;0.80;99.90;;;;;;5071874;28;19920;-82
2024/01/15 07:39:54;;;;;;;;;;;0.80;99.90;;;;;;5090525;27;19975;-81
2024/01/15 07:42:20;;;;;;;;;;;0.80;99.90;;;;;;5085181;28;19922;-81
2024/01/15 07:44:46;;;;;;;;;;;0.70;99.90;;;;;;5085614;28;20177;-83
2024/01/15 07:47:12;;;;;;;;;;;0.70;99.90;;;;;;5087406;28;19928;-86
2024/01/15 07:49:38;;;;;;;;;;;0.80;99.90;;;;;;5086280;28;19923;-80
2024/01/15 07:52:05;;;;;;;;;;;0.90;99.90;;;;;;5086011;27;19919;-82
2024/01/15 07:54:33;;;;;;;;;;;1.10;99.90;;;;;;5099170;28;19924;-81
2024/01/15 07:57:00;;;;;;;;;;;1.70;99.90;;;;;;5101376;28;19923;-82
2024/01/15 07:59:26;;;;;;;;;;;1.20;99.90;;;;;;5107488;28;19925;-84
2024/01/15 08:01:52;;;;;;;;;;;1.10;99.90;;;;;;5101293;28;19923;-84
2024/01/15 08:04:18;;;;;;;;;;;1.10;99.90;;;;;;5106976;28;20323;-86
2024/01/15 08:06:44;;;;;;;;;;;0.90;99.90;;;;;;5087258;28;19959;-82
2024/01/15 08:09:10;;;;;;;;;;;2.10;99.90;;;;;;5069795;28;20006;-83
2024/01/15 08:11:36;;;;;;;;;;;1.00;99.90;;;;;;5094366;27;20735;-82
2024/01/15 08:14:02;;;;;;;;;;;1.50;99.90;;;;;;5108588;28;20033;-85
2024/01/15 08:16:28;;;;;;;;;;;1.10;99.90;;;;;;5107489;28;20413;-86
2024/01/15 08:18:54;;;;;;;;;;;0.80;99.90;;;;;;5104396;28;19924;-81
2024/01/15 08:21:20;;;;;;;;;;;1.00;99.90;;;;;;5104864;28;20289;-86
2024/01/15 08:23:45;;;;;;;;;;;1.00;99.90;;;;;;5098230;28;19920;-78
2024/01/15 08:26:11;;;;;;;;;;;1.10;99.90;;;;;;5078110;28;19995;-80
2024/01/15 08:28:36;;;;;;;;;;;1.00;99.90;;;;;;5091066;28;19923;-82
2024/01/15 08:31:02;;;;;;;;;;;0.90;99.90;;;;;;5110136;28;19919;-81
2024/01/15 08:33:28;;;;;;;;;;;1.10;99.90;;;;;;5108654;28;20019;-79
2024/01/15 08:35:54;;;;;;;;;;;1.10;99.90;;;;;;5089384;28;20002;-81
2024/01/15 08:38:20;;;;;;;;;;;0.90;99.90;;;;;;5103680;28;19974;-82
2024/01/15 08:40:46;;;;;;;;;;;1.30;99.90;;;;;;5098687;28;19915;-85
2024/01/15 08:43:11;;;;;;;;;;;1.10;99.90;;;;;;5102611;28;19988;-80
2024/01/15 08:45:37;;;;;;;;;;;1.20;99.90;;;;;;5068661;28;19916;-80
2024/01/15 08:48:03;;;;;;;;;;;1.20;99.90;;;;;;5091848;27;19927;-82
2024/01/15 08:50:29;;;;;;;;;;;1.30;99.90;;;;;;5110773;28;19963;-85
2024/01/15 08:52:55;;;;;;;;;;;1.50;99.90;;;;;;5101719;28;19959;-81
2024/01/15 08:55:22;;;;;;;;;;;1.30;99.90;;;;;;5099522;28;20047;-84
2024/01/15 08:57:48;;;;;;;;;;;1.30;99.90;;;;;;5078344;28;19915;-86
2024/01/15 09:00:14;;;;;;;;;;;1.20;99.90;;;;;;5090722;28;20006;-86
2024/01/15 09:02:40;;;;;;;;;;;1.10;99.90;;;;;;5072087;28;20011;-86
2024/01/15 09:05:08;;;;;;;;;;;1.00;99.90;;;;;;5109079;28;19926;-84
2024/01/15 09:07:33;;;;;;;;;;;1.70;99.90;;;;;;5104189;27;19994;-82
2024/01/15 09:09:59;;;;;;;;;;;0.80;99.90;;;;;;5108104;27;19920;-81
2024/01/15 09:12:26;;;;;;;;;;;0.90;99.90;;;;;;5106300;27;19949;-82
2024/01/15 09:14:53;;;;;;;;;;;1.00;99.90;;;;;;5102686;28;19943;-82
2024/01/15 09:17:23;;;;;;;;;;;1.00;99.90;;;;;;5090103;28;19916;-82
2024/01/15 09:19:49;;;;;;;;;;;1.00;99.90;;;;;;5106281;27;19962;-81
2024/01/15 09:22:18;;;;;;;;;;;1.10;99.90;;;;;;5106632;28;20005;-82
2024/01/15 09:24:44;;;;;;;;;;;1.00;99.90;;;;;;5104033;28;19924;-81
2024/01/15 09:27:09;;;;;;;;;;;1.20;99.90;;;;;;5104966;28;20312;-80
2024/01/15 09:29:37;;;;;;;;;;;1.50;99.90;;;;;;5106867;28;19961;-81
2024/01/15 09:32:03;;;;;;;;;;;1.20;99.90;;;;;;5091407;28;20720;-81
2024/01/15 09:34:29;;;;;;;;;;;1.10;99.90;;;;;;5104260;28;20019;-81
2024/01/15 09:36:55;;;;;;;;;;;1.00;99.90;;;;;;5079078;28;20400;-81
2024/01/15 09:39:23;;;;;;;;;;;1.10;99.90;;;;;;5105012;28;19978;-80
2024/01/15 09:41:49;;;;;;;;;;;1.00;99.90;;;;;;5097544;27;20023;-81
2024/01/15 09:44:15;;;;;;;;;;;1.30;99.90;;;;;;5078051;28;20430;-82
2024/01/15 09:46:42;;;;;;;;;;;1.20;99.90;;;;;;5101507;28;19919;-81
2024/01/15 09:49:08;;;;;;;;;;;1.00;99.90;;;;;;5091757;27;19923;-81
2024/01/15 09:51:36;;;;;;;;;;;1.60;99.90;;;;;;5084986;28;20367;-82
2024/01/15 09:54:02;;;;;;;;;;;1.30;99.90;;;;;;5089831;28;19923;-84
2024/01/15 09:56:27;;;;;;;;;;;1.70;99.90;;;;;;5087072;28;19915;-81
2024/01/15 09:58:53;;;;;;;;;;;1.80;99.90;;;;;;5095798;28;19967;-85
2024/01/15 10:01:22;;;;;;;;;;;2.60;99.90;;;;;;5087895;28;19966;-83
2024/01/15 10:03:48;;;;;;;;;;;1.80;99.90;;;;;;5110989;28;20007;-81
2024/01/15 10:06:19;;;;;;;;;;;1.60;99.90;;;;;;5092563;27;19920;-81
2024/01/15 10:08:48;;;;;;;;;;;1.80;99.90;;;;;;5110657;28;20275;-83
2024/01/15 10:11:14;;;;;;;;;;;1.50;99.90;;;;;;5086592;28;19916;-83
2024/01/15 10:13:39;;;;;;;;;;;1.90;99.90;;;;;;5105947;28;20391;-83
2024/01/15 10:16:05;;;;;;;;;;;1.40;99.90;;;;;;5092114;28;20264;-82
2024/01/15 10:18:32;;;;;;;;;;;1.30;99.90;;;;;;5067577;28;19966;-83
2024/01/15 10:20:57;;;;;;;;;;;0.90;99.90;;;;;;5087955;28;19923;-81
2024/01/15 10:23:24;;;;;;;;;;;1.60;99.90;;;;;;5094575;28;20518;-82
2024/01/15 10:25:51;;;;;;;;;;;1.30;99.90;;;;;;5107367;27;19981;-85
2024/01/15 10:28:19;;;;;;;;;;;2.20;99.90;;;;;;5089040;28;19931;-82
2024/01/15 10:30:44;;;;;;;;;;;1.30;99.90;;;;;;5095873;27;19916;-82
2024/01/15 10:33:11;;;;;;;;;;;1.40;99.90;;;;;;5112959;28;20053;-83
2024/01/15 10:35:37;;;;;;;;;;;1.60;99.90;;;;;;5086308;28;19943;-82
2024/01/15 10:38:03;;;;;;;;;;;1.80;99.90;;;;;;5099641;28;19924;-81
2024/01/15 10:40:29;;;;;;;;;;;2.00;99.90;;;;;;5096035;28;19930;-82
2024/01/15 10:42:55;;;;;;;;;;;2.40;99.90;;;;;;5075529;28;19916;-80
2024/01/15 10:45:20;;;;;;;;;;;2.40;99.90;;;;;;5093542;28;19915;-81
2024/01/15 10:47:46;;;;;;;;;;;2.80;99.90;;;;;;5106762;28;20282;-81
2024/01/15 10:50:12;;;;;;;;;;;2.50;99.90;;;;;;5091616;28;19919;-81
2024/01/15 10:52:38;;;;;;;;;;;2.40;99.90;;;;;;5111232;27;19919;-80
2024/01/15 10:55:04;;;;;;;;;;;3.60;99.90;;;;;;5094080;27;20003;-81
2024/01/15 10:57:30;;;;;;;;;;;2.10;99.90;;;;;;5116920;27;19923;-80
2024/01/15 10:59:55;;;;;;;;;;;1.60;99.90;;;;;;5086697;28;19923;-80
2024/01/15 11:02:21;;;;;;;;;;;1.60;99.90;;;;;;5098589;27;20023;-80
2024/01/15 11:04:47;;;;;;;;;;;1.60;99.90;;;;;;5104119;27;20292;-81
2024/01/15 11:07:13;;;;;;;;;;;2.90;99.90;;;;;;5066820;28;19937;-80
2024/01/15 11:09:39;;;;;;;;;;;1.50;99.90;;;;;;5106863;28;20338;-80
2024/01/15 11:12:10;;;;;;;;;;;1.80;99.90;;;;;;5085869;28;19920;-81
2024/01/15 11:14:39;;;;;;;;;;;1.80;99.90;;;;;;5106391;27;20372;-82
2024/01/15 11:17:05;;;;;;;;;;;1.80;99.90;;;;;;5099340;27;19920;-83
2024/01/15 11:19:44;;;;;;;;;;;1.90;99.90;;;;;;5102516;27;19965;-81
2024/01/15 11:22:19;;;;;;;;;;;2.00;99.90;;;;;;5107079;27;19923;-81
2024/01/15 11:24:44;;;;;;;;;;;2.10;99.90;;;;;;5104997;28;19920;-81
2024/01/15 11:27:10;;;;;;;;;;;2.40;99.90;;;;;;5090508;28;20261;-81
2024/01/15 11:29:36;;;;;;;;;;;3.20;99.90;;;;;;5069658;28;20006;-81
2024/01/15 11:32:04;;;;;;;;;;;2.20;99.90;;;;;;5102610;28;19915;-81
2024/01/15 11:34:48;;;;;;;;;;;2.30;99.90;;;;;;5102191;28;19920;-82
2024/01/15 11:37:14;;;;;;;;;;;2.30;99.90;;;;;;5101139;28;19916;-82
2024/01/15 11:39:42;;;;;;;;;;;2.90;99.90;;;;;;5089424;28;20253;-82
2024/01/15 11:42:09;;;;;;;;;;;2.50;99.90;;;;;;5085614;28;19916;-82
2024/01/15 11:44:38;;;;;;;;;;;2.10;99.90;;;;;;5109173;28;19916;-81
2024/01/15 11:47:08;;;;;;;;;;;2.10;99.90;;;;;;5108360;27;19920;-81
2024/01/15 11:49:52;;;;;;;;;;;2.00;99.90;;;;;;5085033;28;19916;-82
2024/01/15 11:52:18;;;;;;;;;;;1.80;99.90;;;;;;5106056;28;20367;-83
2024/01/15 11:54:48;;;;;;;;;;;2.00;99.90;;;;;;5102718;28;19927;-83
2024/01/15 11:57:18;;;;;;;;;;;1.70;99.90;;;;;;5101321;27;20000;-82
2024/01/15 11:59:43;;;;;;;;;;;1.70;99.90;;;;;;5103515;28;19916;-83
2024/01/15 12:02:11;;;;;;;;;;;1.20;99.90;;;;;;5090832;28;19924;-82
2024/01/15 12:04:37;;;;;;;;;;;1.40;99.90;;;;;;5107587;28;19931;-81
2024/01/15 12:07:02;;;;;;;;;;;1.40;99.90;;;;;;5084786;27;20314;-81
2024/01/15 12:11:16;;;;;;;0.70;0.70;;;1.30;99.90;;;;;;5079266;27;20422;-80
2024/01/15 12:13:41;;;;;;;0.52;0.52;;;1.30;99.90;;;;;;4995081;28;20060;-79
2024/01/15 12:16:07;;;;;;;0.70;0.70;;;1.40;99.90;;;;;;4992815;28;20102;-81
2024/01/15 12:18:33;;;;;;;0.70;0.70;;;1.50;99.90;;;;;;5016296;28;20608;-79
2024/01/15 12:20:59;;;;;;;0.60;0.60;;;1.90;99.90;;;;;;5041736;28;20095;-81
2024/01/15 12:23:25;;;;;;;;;;;1.60;99.90;;;;;;5026860;28;20363;-81
2024/01/15 12:25:51;;;;;;;0.70;0.70;;;1.70;99.90;;;;;;4990782;28;19925;-79
2024/01/15 12:28:16;;;;;;;1.42;1.42;;;1.70;99.90;;;;;;4988118;28;20044;-77
2024/01/15 12:30:42;;;;;;;0.75;0.75;;;1.90;99.90;;;;;;5005641;28;20747;-81
2024/01/15 12:33:08;;;;;;;0.60;0.60;;;1.90;99.90;;;;;;4999752;28;20076;-81
2024/01/15 12:35:34;;;;;;;0.60;0.60;;;2.00;99.90;;;;;;5031578;28;20296;-81
2024/01/15 12:38:02;;;;;;;0.70;0.70;;;2.20;99.90;;;;;;5006325;28;20041;-82
2024/01/15 12:40:28;;;;;;;0.60;0.60;;;2.20;99.90;;;;;;5010321;28;20165;-82
2024/01/15 12:42:54;;;;;;;0.70;0.70;;;2.30;99.90;;;;;;5023869;28;20073;-79
2024/01/15 12:45:20;;;;;;;0.60;0.60;;;2.30;99.90;;;;;;5011109;28;20060;-78
2024/01/15 12:47:46;;;;;;;0.70;0.70;;;2.40;99.90;;;;;;5021817;28;20072;-79
2024/01/15 12:50:13;;;;;;;0.90;0.90;;;2.50;99.90;;;;;;4998565;28;20042;-78
2024/01/15 12:52:42;;;;;;;0.60;0.60;;;2.60;99.90;;;;;;5040243;28;20053;-81
2024/01/15 12:55:09;;;;;;;0.95;0.95;;;2.70;99.90;;;;;;5012590;28;20418;-78
2024/01/15 12:57:35;;;;;;;1.77;1.67;;;2.70;99.90;;;;;;5009051;28;20038;-78
2024/01/15 13:00:04;;;;;;;0.50;0.50;;;2.70;99.90;;;;;;4992470;28;20045;-78
2024/01/15 13:02:30;;;;;;;0.70;0.70;;;2.70;99.90;;;;;;4973297;28;20046;-81
2024/01/15 13:04:56;;;;;;;0.60;0.60;;;2.70;99.90;;;;;;4992120;28;20451;-80
2024/01/15 13:07:21;;;;;;;0.60;0.60;;;2.80;99.90;;;;;;4974349;28;20044;-80
2024/01/15 13:09:47;;;;;;;0.70;0.70;;;2.70;99.90;;;;;;5001512;28;20416;-80
2024/01/15 13:12:16;;;;;;;0.70;0.70;;;2.80;99.90;;;;;;5004810;28;20046;-79
2024/01/15 13:14:42;;;;;;;0.70;0.70;;;2.80;99.90;;;;;;4992514;28;20038;-80
2024/01/15 13:17:08;;;;;;;1.42;1.33;;;3.10;99.90;;;;;;4976425;28;20408;-82
2024/01/15 13:19:34;;;;;;;;;;;2.60;99.90;;;;;;4971845;28;20110;-81
2024/01/15 13:22:00;;;;;;;0.63;0.63;;;2.50;99.90;;;;;;4977895;28;20321;-82
2024/01/15 13:24:25;;;;;;;0.70;0.70;;;2.20;99.90;;;;;;4948264;28;20160;-80
2024/01/15 13:26:51;;;;;;;0.85;0.85;;;2.10;99.90;;;;;;4964343;28;20442;-80
2024/01/15 13:29:18;;;;;;;0.60;0.60;;;2.00;99.90;;;;;;4950873;28;20042;-80
2024/01/15 13:31:46;;;;;;;;;;;1.90;99.90;;;;;;4996145;28;20053;-82
2024/01/15 13:34:12;;;;;;;0.60;0.60;;;2.30;99.90;;;;;;4982017;28;19971;-78
2024/01/15 13:36:38;;;;;;;4.78;3.13;;;2.40;99.90;;;;;;4981794;28;20042;-78
2024/01/15 13:39:08;;;;;;;0.70;0.70;;;3.00;99.90;;;;;;4969968;28;20040;-80
2024/01/15 13:41:34;;;;;;;0.60;0.60;;;2.90;99.90;;;;;;4978870;28;20046;-80
2024/01/15 13:44:00;;;;;;;0.60;0.60;;;3.50;99.90;;;;;;4975805;28;20464;-81
2024/01/15 13:46:26;;;;;;;0.70;0.70;;;3.10;99.90;;;;;;4989778;28;20049;-79
2024/01/15 13:48:53;;;;;;;0.85;0.85;;;3.20;99.90;;;;;;4992335;28;20420;-78
2024/01/15 13:51:18;;;;;;;0.68;0.68;;;2.90;99.90;;;;;;4994034;28;20510;-79